Time;durP1;ratioP1;P1;durP2;ratioP2;P2;SDS_P1;SDS_P2;PMS_P1;PMS_P2;Temp;Humidity;BMP_temperature;BMP_pressure;BME280_temperature;BME280_humidity;BME280_pressure;Samples;Min_cycle;Max_cycle;Signal;HPM_P1;HPM_P2
2024/03/15 00:00:17;;;;;;;9.57;6.33;;;12.30;99.90;;;;;;5095858;28;20193;-79
2024/03/15 00:02:46;;;;;;;8.33;5.70;;;12.30;99.90;;;;;;5095355;28;20208;-78
2024/03/15 00:05:13;;;;;;;8.53;6.50;;;12.30;99.90;;;;;;5091960;28;20221;-79
2024/03/15 00:07:40;;;;;;;8.33;6.00;;;12.30;99.90;;;;;;5094864;28;20260;-81
2024/03/15 00:10:07;;;;;;;9.53;6.40;;;12.30;99.90;;;;;;5089931;28;20198;-81
2024/03/15 00:12:35;;;;;;;10.63;6.00;;;12.40;99.90;;;;;;5096423;28;20314;-81
2024/03/15 00:15:02;;;;;;;8.17;6.27;;;12.20;99.90;;;;;;5098357;28;20603;-81
2024/03/15 00:17:29;;;;;;;7.50;6.33;;;12.20;99.90;;;;;;5097473;28;20217;-81
2024/03/15 00:19:56;;;;;;;8.47;6.40;;;12.20;99.90;;;;;;5095267;28;20224;-81
2024/03/15 00:22:23;;;;;;;8.33;6.33;;;12.30;99.90;;;;;;5095833;28;20243;-81
2024/03/15 00:24:51;;;;;;;10.57;6.17;;;12.40;99.90;;;;;;5087750;28;20205;-81
2024/03/15 00:27:17;;;;;;;9.23;6.37;;;12.40;99.90;;;;;;5090287;28;20189;-79
2024/03/15 00:29:44;;;;;;;8.20;6.33;;;12.40;99.90;;;;;;5098924;28;20201;-81
2024/03/15 00:32:11;;;;;;;8.40;6.10;;;12.40;99.90;;;;;;5091645;28;20221;-81
2024/03/15 00:34:39;;;;;;;9.00;6.60;;;12.50;99.90;;;;;;5097200;28;20241;-81
2024/03/15 00:37:08;;;;;;;11.80;6.43;;;12.50;99.90;;;;;;5110120;28;20303;-79
2024/03/15 00:39:35;;;;;;;9.33;6.30;;;12.40;99.90;;;;;;5093325;28;20205;-81
2024/03/15 00:42:02;;;;;;;8.07;5.80;;;12.40;99.90;;;;;;5108348;28;20220;-82
2024/03/15 00:44:29;;;;;;;8.50;6.30;;;12.40;99.90;;;;;;5098874;28;20205;-81
2024/03/15 00:46:56;;;;;;;6.53;5.53;;;12.40;99.90;;;;;;5096543;28;20197;-81
2024/03/15 00:49:23;;;;;;;7.20;6.20;;;12.30;99.90;;;;;;5098057;28;20193;-81
2024/03/15 00:51:50;;;;;;;9.30;6.13;;;12.20;99.90;;;;;;5095353;28;20256;-82
2024/03/15 00:54:17;;;;;;;8.07;5.97;;;12.20;99.90;;;;;;5096135;28;20201;-81
2024/03/15 00:56:44;;;;;;;7.63;5.90;;;12.10;99.90;;;;;;5096682;28;20726;-81
2024/03/15 00:59:11;;;;;;;11.37;5.67;;;12.10;1.00;;;;;;5096009;28;20202;-81
2024/03/15 01:01:39;;;;;;;8.80;5.90;;;12.20;99.90;;;;;;5097172;28;20222;-80
2024/03/15 01:04:06;;;;;;;6.60;5.60;;;12.20;1.00;;;;;;5111166;28;20639;-81
2024/03/15 01:06:33;;;;;;;9.50;5.93;;;12.30;99.90;;;;;;5091922;28;20198;-80
2024/03/15 01:09:00;;;;;;;8.27;6.03;;;12.20;1.00;;;;;;5110847;28;20227;-81
2024/03/15 01:11:28;;;;;;;10.00;6.23;;;12.20;1.00;;;;;;5098975;28;20752;-81
2024/03/15 01:13:57;;;;;;;8.73;5.87;;;12.00;1.00;;;;;;5102117;28;20226;-81
2024/03/15 01:16:24;;;;;;;9.03;6.30;;;12.10;1.00;;;;;;5097450;28;20225;-81
2024/03/15 01:18:53;;;;;;;7.23;6.10;;;12.10;1.00;;;;;;5100900;28;20216;-80
2024/03/15 01:21:21;;;;;;;7.13;6.07;;;12.00;1.00;;;;;;5092040;28;20221;-81
2024/03/15 01:23:48;;;;;;;9.80;6.00;;;12.00;1.00;;;;;;5085631;28;20201;-80
2024/03/15 01:26:15;;;;;;;10.03;5.87;;;12.00;1.00;;;;;;5086725;28;20209;-81
2024/03/15 01:28:42;;;;;;;8.63;6.33;;;12.00;1.00;;;;;;5092766;28;20303;-80
2024/03/15 01:31:09;;;;;;;8.80;6.03;;;12.00;1.00;;;;;;5094034;28;20221;-81
2024/03/15 01:33:36;;;;;;;11.23;6.67;;;12.10;1.00;;;;;;5100980;28;20201;-81
2024/03/15 01:36:04;;;;;;;8.27;6.00;;;12.10;1.00;;;;;;5108863;28;20204;-81
2024/03/15 01:38:31;;;;;;;7.37;5.80;;;12.00;1.00;;;;;;5089998;28;20557;-81
2024/03/15 01:40:58;;;;;;;8.43;6.30;;;12.10;1.00;;;;;;5091464;28;20217;-80
2024/03/15 01:43:25;;;;;;;7.70;6.00;;;12.10;1.00;;;;;;5092084;28;20708;-81
2024/03/15 01:45:52;;;;;;;8.17;6.00;;;12.10;1.00;;;;;;5097910;28;20204;-80
2024/03/15 01:48:20;;;;;;;7.67;5.60;;;12.10;1.00;;;;;;5092103;28;20201;-81
2024/03/15 01:50:48;;;;;;;7.70;6.23;;;12.00;1.00;;;;;;5096654;28;20222;-80
2024/03/15 01:53:16;;;;;;;9.87;6.37;;;12.00;1.00;;;;;;5095674;28;20261;-80
2024/03/15 01:55:43;;;;;;;11.53;7.00;;;12.00;1.00;;;;;;5097124;28;20701;-81
2024/03/15 01:58:10;;;;;;;8.57;6.40;;;12.00;1.00;;;;;;5091537;28;20249;-81
2024/03/15 02:00:38;;;;;;;7.50;6.37;;;12.00;1.00;;;;;;5097390;28;20358;-81
2024/03/15 02:03:05;;;;;;;8.60;6.20;;;12.00;1.00;;;;;;5091714;28;20258;-80
2024/03/15 02:05:33;;;;;;;8.50;6.50;;;11.90;1.00;;;;;;5100650;28;20201;-81
2024/03/15 02:08:00;;;;;;;9.10;6.37;;;11.90;1.00;;;;;;5105090;28;20197;-80
2024/03/15 02:10:27;;;;;;;7.57;6.40;;;11.80;1.00;;;;;;5099225;28;20651;-81
2024/03/15 02:12:54;;;;;;;8.30;6.23;;;11.80;1.00;;;;;;5102436;28;20226;-82
2024/03/15 02:15:21;;;;;;;8.13;6.20;;;11.90;1.00;;;;;;5100198;28;20228;-81
2024/03/15 02:17:48;;;;;;;9.73;6.90;;;12.00;1.00;;;;;;5096700;28;20216;-81
2024/03/15 02:20:19;;;;;;;8.10;6.23;;;12.00;1.00;;;;;;5107548;28;20198;-81
2024/03/15 02:22:46;;;;;;;9.83;6.70;;;12.00;1.00;;;;;;5109477;28;20273;-81
2024/03/15 02:25:13;;;;;;;9.10;6.27;;;11.90;1.00;;;;;;5090201;28;20204;-81
2024/03/15 02:27:40;;;;;;;7.73;6.23;;;12.00;1.00;;;;;;5089110;28;20226;-81
2024/03/15 02:30:08;;;;;;;8.60;6.23;;;11.90;1.00;;;;;;5095593;28;20202;-81
2024/03/15 02:32:34;;;;;;;10.83;7.03;;;11.90;1.00;;;;;;5098180;28;20576;-81
2024/03/15 02:35:06;;;;;;;8.80;6.37;;;11.80;1.00;;;;;;5087702;28;20202;-81
2024/03/15 02:37:33;;;;;;;8.37;6.17;;;11.80;1.00;;;;;;5099076;28;20245;-81
2024/03/15 02:40:00;;;;;;;8.67;7.20;;;11.70;1.00;;;;;;5094497;28;20313;-81
2024/03/15 02:42:27;;;;;;;9.20;6.67;;;11.70;1.00;;;;;;5109149;28;20225;-81
2024/03/15 02:44:55;;;;;;;11.80;7.23;;;11.80;1.00;;;;;;5098660;28;20726;-81
2024/03/15 02:47:25;;;;;;;10.80;6.80;;;11.80;1.00;;;;;;5090262;28;20198;-81
2024/03/15 02:49:52;;;;;;;10.60;6.90;;;11.80;1.00;;;;;;5100973;28;20224;-81
2024/03/15 02:52:19;;;;;;;10.73;7.40;;;11.90;1.00;;;;;;5097390;28;20224;-81
2024/03/15 02:54:46;;;;;;;9.27;7.37;;;12.00;1.00;;;;;;5094942;28;20205;-81
2024/03/15 02:57:13;;;;;;;11.00;7.00;;;11.90;1.00;;;;;;5097867;28;20217;-81
2024/03/15 02:59:40;;;;;;;10.57;7.03;;;11.90;1.00;;;;;;5098556;28;20648;-81
2024/03/15 03:02:08;;;;;;;11.47;7.63;;;11.90;1.00;;;;;;5086399;28;20241;-80
2024/03/15 03:04:36;;;;;;;9.90;7.20;;;11.90;1.00;;;;;;5093966;28;20265;-80
2024/03/15 03:07:04;;;;;;;11.10;7.07;;;11.80;1.00;;;;;;5095675;28;20198;-80
2024/03/15 03:09:32;;;;;;;12.13;7.47;;;11.80;1.00;;;;;;5090018;28;20269;-81
2024/03/15 03:11:59;;;;;;;11.17;7.63;;;11.80;1.00;;;;;;5094882;28;20244;-80
2024/03/15 03:14:26;;;;;;;9.83;7.53;;;11.80;1.00;;;;;;5089565;28;20255;-81
2024/03/15 03:16:53;;;;;;;10.43;7.13;;;11.70;1.00;;;;;;5102222;28;20624;-79
2024/03/15 03:19:20;;;;;;;8.57;6.43;;;11.60;1.00;;;;;;5095638;28;20649;-79
2024/03/15 03:21:47;;;;;;;10.07;6.87;;;11.50;68.10;;;;;;5083622;28;20256;-79
2024/03/15 03:24:14;;;;;;;11.77;7.00;;;11.40;99.90;;;;;;5082126;28;20219;-79
2024/03/15 03:26:41;;;;;;;13.07;8.27;;;11.30;99.90;;;;;;5080327;28;20690;-79
2024/03/15 03:29:08;;;;;;;9.90;6.80;;;11.30;99.90;;;;;;5085396;28;20198;-79
2024/03/15 03:31:35;;;;;;;11.43;7.50;;;11.20;99.90;;;;;;5094414;28;20213;-79
2024/03/15 03:34:03;;;;;;;10.27;7.20;;;11.10;99.90;;;;;;5086621;28;20242;-79
2024/03/15 03:36:31;;;;;;;11.40;7.50;;;11.10;99.90;;;;;;5086580;28;20670;-79
2024/03/15 03:38:59;;;;;;;10.77;7.40;;;10.80;1.00;;;;;;5095004;28;20270;-79
2024/03/15 03:41:26;;;;;;;12.30;7.50;;;10.70;1.00;;;;;;5083472;28;20320;-79
2024/03/15 03:43:52;;;;;;;11.90;7.37;;;10.90;1.00;;;;;;5086487;28;20244;-79
2024/03/15 03:46:21;;;;;;;12.10;7.90;;;10.80;1.00;;;;;;5105554;28;20732;-79
2024/03/15 03:48:48;;;;;;;9.47;6.70;;;10.80;1.00;;;;;;5095577;28;20197;-79
2024/03/15 03:51:15;;;;;;;11.67;7.63;;;10.60;1.00;;;;;;5086849;28;20309;-79
2024/03/15 03:53:42;;;;;;;12.07;7.67;;;10.50;1.00;;;;;;5095185;28;20204;-79
2024/03/15 03:56:10;;;;;;;11.33;7.77;;;10.40;1.00;;;;;;5087222;28;20226;-79
2024/03/15 03:58:37;;;;;;;10.00;7.60;;;10.20;91.30;;;;;;5105368;28;20225;-79
2024/03/15 04:01:04;;;;;;;11.60;7.63;;;10.20;99.90;;;;;;5091263;28;20240;-79
2024/03/15 04:03:33;;;;;;;10.83;8.00;;;10.20;99.90;;;;;;5103907;28;20193;-79
2024/03/15 04:06:00;;;;;;;10.17;7.23;;;10.10;99.90;;;;;;5092057;28;20278;-79
2024/03/15 04:08:27;;;;;;;11.53;7.70;;;10.10;1.00;;;;;;5090817;28;20212;-79
2024/03/15 04:10:54;;;;;;;10.20;7.03;;;10.00;1.00;;;;;;5091614;28;20452;-79
2024/03/15 04:13:21;;;;;;;9.53;7.03;;;10.10;1.00;;;;;;5099805;28;20201;-79
2024/03/15 04:15:51;;;;;;;11.33;7.33;;;10.10;1.00;;;;;;5107974;28;20202;-79
2024/03/15 04:18:18;;;;;;;12.40;7.87;;;10.00;1.00;;;;;;5090611;28;20250;-79
2024/03/15 04:20:46;;;;;;;11.27;7.60;;;10.00;1.00;;;;;;5090416;28;20684;-79
2024/03/15 04:23:14;;;;;;;12.07;7.90;;;9.90;1.00;;;;;;5090903;28;20288;-79
2024/03/15 04:25:43;;;;;;;12.63;8.13;;;10.20;1.00;;;;;;5095056;28;20285;-79
2024/03/15 04:28:11;;;;;;;10.13;7.20;;;10.10;99.90;;;;;;5089683;28;20196;-77
2024/03/15 04:30:38;;;;;;;11.73;8.07;;;9.90;1.00;;;;;;5082746;28;20231;-80
2024/03/15 04:33:06;;;;;;;11.23;7.03;;;9.70;1.00;;;;;;5080935;28;20237;-79
2024/03/15 04:35:32;;;;;;;11.57;7.53;;;9.70;1.00;;;;;;5107818;28;20209;-79
2024/03/15 04:38:03;;;;;;;11.53;7.37;;;9.60;1.00;;;;;;5088342;28;20264;-79
2024/03/15 04:40:30;;;;;;;11.30;7.10;;;9.40;1.00;;;;;;5090505;28;20208;-79
2024/03/15 04:42:57;;;;;;;11.43;7.87;;;9.50;99.90;;;;;;5090866;28;20251;-79
2024/03/15 04:45:24;;;;;;;21.10;12.73;;;9.40;99.90;;;;;;5091268;28;20241;-78
2024/03/15 04:47:51;;;;;;;11.13;7.53;;;9.30;99.90;;;;;;5090967;28;20221;-79
2024/03/15 04:50:18;;;;;;;12.60;7.77;;;9.20;1.00;;;;;;5090601;28;20193;-78
2024/03/15 04:52:47;;;;;;;10.93;7.30;;;9.10;99.90;;;;;;5082172;28;20205;-79
2024/03/15 04:55:14;;;;;;;11.83;7.70;;;9.10;1.00;;;;;;5079494;28;20673;-79
2024/03/15 04:57:41;;;;;;;13.63;8.00;;;8.90;99.90;;;;;;5085814;28;20297;-79
2024/03/15 05:00:17;;;;;;;10.50;6.73;;;8.80;1.00;;;;;;5080867;28;20202;-79
2024/03/15 05:02:44;;;;;;;10.20;6.77;;;8.80;1.00;;;;;;5103334;28;20205;-78
2024/03/15 05:05:13;;;;;;;11.93;8.20;;;8.90;1.00;;;;;;5088766;28;20232;-79
2024/03/15 05:07:41;;;;;;;12.20;7.63;;;8.90;19.10;;;;;;5090786;28;20648;-79
2024/03/15 05:10:09;;;;;;;10.90;7.50;;;9.00;99.90;;;;;;5095868;28;20194;-79
2024/03/15 05:12:36;;;;;;;11.97;7.33;;;9.00;99.90;;;;;;5086256;28;20213;-79
2024/03/15 05:15:04;;;;;;;12.30;7.70;;;9.10;99.90;;;;;;5095436;28;20231;-79
2024/03/15 05:17:31;;;;;;;13.07;7.20;;;9.10;99.90;;;;;;5094758;28;20304;-79
2024/03/15 05:19:58;;;;;;;13.97;8.23;;;9.00;99.90;;;;;;5096506;28;20206;-79
2024/03/15 05:22:27;;;;;;;14.37;7.90;;;9.00;99.90;;;;;;5093029;28;20245;-79
2024/03/15 05:24:54;;;;;;;15.80;7.53;;;8.90;99.90;;;;;;5094591;28;20205;-79
2024/03/15 05:27:21;;;;;;;11.13;8.03;;;8.80;1.00;;;;;;5095511;28;20691;-79
2024/03/15 05:29:48;;;;;;;11.87;7.80;;;8.80;1.00;;;;;;5090716;28;20320;-79
2024/03/15 05:32:16;;;;;;;10.10;7.40;;;8.80;1.00;;;;;;5095960;28;20256;-79
2024/03/15 05:34:43;;;;;;;11.53;7.77;;;8.70;99.90;;;;;;5093040;28;20263;-78
2024/03/15 05:37:09;;;;;;;13.80;8.63;;;8.70;99.90;;;;;;5082263;28;21236;-79
2024/03/15 05:39:37;;;;;;;10.87;7.40;;;8.70;99.90;;;;;;5088208;28;20640;-79
2024/03/15 05:42:04;;;;;;;14.43;7.97;;;8.80;1.00;;;;;;5090704;28;20286;-79
2024/03/15 05:44:33;;;;;;;11.23;8.20;;;8.70;1.00;;;;;;5085021;28;20239;-79
2024/03/15 05:47:00;;;;;;;13.83;8.30;;;8.80;1.00;;;;;;5089303;28;20209;-79
2024/03/15 05:49:27;;;;;;;13.87;8.13;;;8.70;1.00;;;;;;5105686;28;20201;-79
2024/03/15 05:51:54;;;;;;;12.93;7.37;;;8.80;1.00;;;;;;5086212;28;20253;-79
2024/03/15 05:54:21;;;;;;;12.40;7.63;;;8.90;1.00;;;;;;5088384;28;20233;-79
2024/03/15 05:56:49;;;;;;;13.13;8.90;;;9.00;1.00;;;;;;5094110;28;20209;-79
2024/03/15 05:59:16;;;;;;;13.80;7.50;;;9.00;99.90;;;;;;5092224;28;20224;-79
2024/03/15 06:01:43;;;;;;;13.10;8.07;;;8.80;1.00;;;;;;5084533;28;20249;-79
2024/03/15 06:04:10;;;;;;;11.13;7.20;;;8.70;99.90;;;;;;5087927;28;20197;-79
2024/03/15 06:06:40;;;;;;;11.33;7.67;;;8.70;1.00;;;;;;5103729;28;20208;-78
2024/03/15 06:09:09;;;;;;;10.37;7.00;;;9.00;1.00;;;;;;5088032;28;20229;-79
2024/03/15 06:11:36;;;;;;;9.60;7.50;;;9.30;99.90;;;;;;5105311;28;20674;-78
2024/03/15 06:14:04;;;;;;;14.57;8.13;;;9.70;1.00;;;;;;5088542;28;20615;-78
2024/03/15 06:16:31;;;;;;;14.57;8.20;;;9.90;1.00;;;;;;5089349;28;20213;-79
2024/03/15 06:18:58;;;;;;;11.00;7.40;;;9.90;1.00;;;;;;5089749;28;20214;-79
2024/03/15 06:21:27;;;;;;;12.00;8.23;;;10.00;1.00;;;;;;5079210;28;20278;-79
2024/03/15 06:23:54;;;;;;;14.03;9.03;;;10.20;1.00;;;;;;5097815;28;20266;-79
2024/03/15 06:26:22;;;;;;;13.67;8.23;;;10.30;1.00;;;;;;5090391;28;20201;-78
2024/03/15 06:28:50;;;;;;;13.17;9.03;;;10.20;1.00;;;;;;5096887;28;20812;-78
2024/03/15 06:31:17;;;;;;;13.60;8.40;;;10.30;1.00;;;;;;5087843;28;20252;-78
2024/03/15 06:33:44;;;;;;;9.93;7.27;;;10.50;1.00;;;;;;5089686;28;20292;-79
2024/03/15 06:36:16;;;;;;;13.00;8.90;;;10.90;1.00;;;;;;5083952;28;20531;-79
2024/03/15 06:38:53;;;;;;;13.37;9.30;;;11.00;99.90;;;;;;5090368;28;20223;-79
2024/03/15 06:41:37;;;;;;;13.97;8.97;;;11.10;99.90;;;;;;5085640;28;20225;-79
2024/03/15 06:44:19;;;;;;;13.13;9.00;;;11.20;1.00;;;;;;5090547;28;20261;-79
2024/03/15 06:47:04;;;;;;;14.20;8.73;;;11.30;1.00;;;;;;5088499;28;20201;-79
2024/03/15 06:49:44;;;;;;;15.90;9.23;;;11.30;1.00;;;;;;5089700;28;20212;-79
2024/03/15 06:54:56;;;;;;;12.10;8.37;;;11.60;1.00;;;;;;5083769;28;20232;-79
2024/03/15 06:57:24;;;;;;;16.03;9.47;;;11.70;1.00;;;;;;5085764;28;20296;-79
2024/03/15 06:59:51;;;;;;;13.03;8.77;;;11.90;99.90;;;;;;5081368;28;20217;-79
2024/03/15 07:02:17;;;;;;;18.13;7.70;;;12.10;99.90;;;;;;5088714;28;20790;-80
2024/03/15 07:04:45;;;;;;;12.33;7.27;;;12.20;29.50;;;;;;5084444;28;20206;-80
2024/03/15 07:07:13;;;;;;;11.50;7.53;;;12.40;1.00;;;;;;5088337;28;20288;-80
2024/03/15 07:09:42;;;;;;;11.07;7.37;;;12.50;1.00;;;;;;5085925;28;20266;-80
2024/03/15 07:12:09;;;;;;;14.03;8.17;;;12.60;1.00;;;;;;5088360;28;20251;-80
2024/03/15 07:14:39;;;;;;;12.17;7.60;;;12.90;99.90;;;;;;5100158;28;20205;-80
2024/03/15 07:17:09;;;;;;;12.33;7.10;;;12.90;99.90;;;;;;5089438;28;20211;-79
2024/03/15 07:19:36;;;;;;;11.33;7.03;;;13.00;99.90;;;;;;5085242;28;20304;-80
2024/03/15 07:22:03;;;;;;;10.77;6.80;;;13.00;66.30;;;;;;5103123;28;20310;-80
2024/03/15 07:24:30;;;;;;;10.67;6.60;;;13.00;1.00;;;;;;5082836;28;20922;-79
2024/03/15 07:26:57;;;;;;;11.50;6.90;;;13.00;1.00;;;;;;5102778;28;20208;-79
2024/03/15 07:29:24;;;;;;;12.30;6.90;;;13.10;1.00;;;;;;5088072;28;20221;-79
2024/03/15 07:31:54;;;;;;;15.10;8.83;;;13.20;1.00;;;;;;5090545;28;20224;-79
2024/03/15 07:34:22;;;;;;;10.60;7.07;;;13.20;1.00;;;;;;5090956;28;20600;-78
2024/03/15 07:36:49;;;;;;;10.93;7.10;;;13.20;1.00;;;;;;5091744;28;20204;-79
2024/03/15 07:39:16;;;;;;;11.53;7.17;;;13.30;1.00;;;;;;5086748;28;21751;-79
2024/03/15 07:41:43;;;;;;;11.17;6.40;;;13.30;1.00;;;;;;5093135;28;20277;-79
2024/03/15 07:44:11;;;;;;;10.27;6.77;;;13.30;1.00;;;;;;5083120;28;20663;-79
2024/03/15 07:46:38;;;;;;;10.57;7.00;;;13.40;1.00;;;;;;5107199;28;20292;-79
2024/03/15 07:49:08;;;;;;;13.38;6.47;;;13.50;1.00;;;;;;5088843;28;20201;-79
2024/03/15 07:51:36;;;;;;;9.82;6.70;;;13.50;1.00;;;;;;5088586;28;20217;-80
2024/03/15 07:54:04;;;;;;;11.27;6.47;;;13.60;99.90;;;;;;5085077;28;20215;-79
2024/03/15 07:56:31;;;;;;;11.83;6.80;;;13.60;99.90;;;;;;5083960;28;20215;-79
2024/03/15 07:58:58;;;;;;;10.63;6.55;;;13.60;99.90;;;;;;5087646;28;20225;-79
2024/03/15 08:01:25;;;;;;;10.77;6.80;;;13.60;99.90;;;;;;5083736;28;20317;-79
2024/03/15 08:03:53;;;;;;;11.45;6.85;;;13.70;99.90;;;;;;5085187;28;20237;-79
2024/03/15 08:06:20;;;;;;;10.35;6.35;;;13.80;99.90;;;;;;5089068;28;20284;-79
2024/03/15 08:08:47;;;;;;;11.43;6.73;;;13.80;99.90;;;;;;5088439;28;20201;-79
2024/03/15 08:11:14;;;;;;;11.95;6.80;;;13.80;99.90;;;;;;5085303;28;20264;-79
2024/03/15 08:13:41;;;;;;;10.40;6.45;;;14.30;99.90;;;;;;5087346;28;20232;-79
2024/03/15 08:16:19;;;;;;;9.45;6.40;;;15.00;99.90;;;;;;5084061;28;20202;-79
2024/03/15 08:18:47;;;;;;;7.53;5.70;;;16.20;1.00;;;;;;5086231;28;20220;-79
2024/03/15 08:21:15;;;;;;;8.25;5.85;;;15.70;1.00;;;;;;5079916;28;20222;-79
2024/03/15 08:23:44;;;;;;;8.88;6.35;;;16.40;1.00;;;;;;5087636;28;20727;-79
2024/03/15 08:26:12;;;;;;;8.65;5.70;;;17.00;1.00;;;;;;5085482;28;20205;-79
2024/03/15 08:28:40;;;;;;;8.13;5.93;;;16.40;1.00;;;;;;5086556;28;20632;-79
2024/03/15 08:31:07;;;;;;;9.57;6.25;;;15.60;1.00;;;;;;5080320;28;20225;-79
2024/03/15 08:33:34;;;;;;;11.90;6.30;;;15.30;1.00;;;;;;5086712;28;20628;-79
2024/03/15 08:36:02;;;;;;;8.25;5.78;;;15.20;1.00;;;;;;5098740;28;20301;-79
2024/03/15 08:38:29;;;;;;;8.57;6.97;;;15.20;1.00;;;;;;5083742;28;20289;-79
2024/03/15 08:40:56;;;;;;;7.55;5.90;;;15.20;1.00;;;;;;5106168;28;20310;-79
2024/03/15 08:43:23;;;;;;;10.73;5.97;;;15.00;1.00;;;;;;5092285;28;20259;-79
2024/03/15 08:45:50;;;;;;;9.02;6.82;;;15.10;1.00;;;;;;5091345;28;20304;-79
2024/03/15 08:48:18;;;;;;;8.48;6.10;;;15.00;1.00;;;;;;5089188;28;20213;-79
2024/03/15 08:50:47;;;;;;;9.43;6.30;;;14.90;1.00;;;;;;5092676;28;20661;-79
2024/03/15 08:53:14;;;;;;;11.75;6.95;;;14.90;1.00;;;;;;5087742;28;20205;-79
2024/03/15 08:55:42;;;;;;;10.00;6.38;;;14.90;1.00;;;;;;5082665;28;20209;-78
2024/03/15 08:58:10;;;;;;;6.22;5.63;;;14.90;1.00;;;;;;5092234;28;20575;-79
2024/03/15 09:00:38;;;;;;;8.88;6.20;;;14.90;1.00;;;;;;5084887;28;20237;-79
2024/03/15 09:03:06;;;;;;;7.90;5.72;;;15.10;1.00;;;;;;5092106;28;20201;-79
2024/03/15 09:05:35;;;;;;;10.07;6.28;;;15.00;1.00;;;;;;5089838;28;20525;-79
2024/03/15 09:08:02;;;;;;;9.63;6.22;;;15.00;1.00;;;;;;5093417;28;20296;-79
2024/03/15 09:10:31;;;;;;;6.85;5.35;;;15.10;1.00;;;;;;5089747;28;20655;-79
2024/03/15 09:12:58;;;;;;;9.07;5.68;;;15.20;1.00;;;;;;5094219;28;20203;-80
2024/03/15 09:15:26;;;;;;;9.25;5.68;;;15.20;1.00;;;;;;5091150;28;20229;-80
2024/03/15 09:17:58;;;;;;;8.18;5.88;;;15.30;1.00;;;;;;5092321;28;20571;-79
2024/03/15 09:20:33;;;;;;;9.10;5.88;;;15.40;1.00;;;;;;5093267;28;20845;-80
2024/03/15 09:23:01;;;;;;;7.95;5.82;;;15.40;1.00;;;;;;5085514;28;20244;-80
2024/03/15 09:25:30;;;;;;;10.95;6.13;;;15.30;1.00;;;;;;5087280;28;20202;-79
2024/03/15 09:27:57;;;;;;;8.50;5.95;;;15.20;1.00;;;;;;5108295;28;20208;-80
2024/03/15 09:30:29;;;;;;;8.35;5.78;;;15.10;1.00;;;;;;5085798;28;20198;-80
2024/03/15 09:32:57;;;;;;;10.68;6.22;;;15.10;1.00;;;;;;5091766;28;20220;-79
2024/03/15 09:35:25;;;;;;;9.65;6.40;;;15.10;1.00;;;;;;5087900;28;20201;-80
2024/03/15 09:37:52;;;;;;;11.20;6.28;;;15.10;1.00;;;;;;5086524;28;20225;-81
2024/03/15 09:40:19;;;;;;;7.85;6.10;;;15.20;1.00;;;;;;5083164;28;20217;-78
2024/03/15 09:42:48;;;;;;;8.30;5.82;;;15.20;1.00;;;;;;5091309;28;20198;-81
2024/03/15 09:45:17;;;;;;;9.18;6.35;;;15.20;1.00;;;;;;5090180;28;20629;-81
2024/03/15 09:47:44;;;;;;;11.13;6.93;;;15.10;1.00;;;;;;5089245;28;20642;-81
2024/03/15 09:50:12;;;;;;;9.68;6.63;;;15.10;1.00;;;;;;5087852;28;20198;-81
2024/03/15 09:52:40;;;;;;;8.85;6.47;;;15.10;1.00;;;;;;5106811;28;20221;-81
2024/03/15 09:55:13;;;;;;;9.00;6.25;;;15.00;1.00;;;;;;5101967;28;20679;-80
2024/03/15 09:57:42;;;;;;;9.57;6.78;;;14.90;1.00;;;;;;5092504;28;20251;-81
2024/03/15 10:00:11;;;;;;;10.98;6.75;;;14.90;1.00;;;;;;5090888;28;20364;-82
2024/03/15 10:02:38;;;;;;;11.27;6.95;;;14.80;1.00;;;;;;5085698;28;20225;-81
2024/03/15 10:05:07;;;;;;;10.98;7.30;;;14.80;1.00;;;;;;5093424;28;20220;-81
2024/03/15 10:07:35;;;;;;;10.55;7.38;;;14.80;1.00;;;;;;5088859;28;20209;-82
2024/03/15 10:10:05;;;;;;;9.75;6.80;;;14.80;1.00;;;;;;5093494;28;20229;-81
2024/03/15 10:12:35;;;;;;;11.40;6.53;;;14.80;1.00;;;;;;5089686;28;20301;-81
2024/03/15 10:15:02;;;;;;;10.93;7.75;;;14.80;1.00;;;;;;5094965;28;20626;-80
2024/03/15 10:17:31;;;;;;;11.48;7.70;;;14.80;1.00;;;;;;5090790;28;20202;-81
2024/03/15 10:19:58;;;;;;;10.23;7.05;;;14.90;1.00;;;;;;5102069;28;20220;-80
2024/03/15 10:22:26;;;;;;;10.93;7.13;;;14.90;1.00;;;;;;5092233;28;20221;-81
2024/03/15 10:24:53;;;;;;;11.32;7.07;;;15.00;1.00;;;;;;5084982;28;20570;-81
2024/03/15 10:27:22;;;;;;;10.82;6.72;;;15.00;1.00;;;;;;5086444;28;20236;-81
2024/03/15 10:29:49;;;;;;;9.40;6.65;;;15.10;1.00;;;;;;5092175;28;20249;-82
2024/03/15 10:32:16;;;;;;;10.35;6.53;;;15.10;1.00;;;;;;5084202;28;20218;-82
2024/03/15 10:34:43;;;;;;;12.02;7.22;;;15.10;1.00;;;;;;5090771;28;20212;-81
2024/03/15 10:37:10;;;;;;;10.43;6.60;;;15.10;1.00;;;;;;5085553;28;20286;-82
2024/03/15 10:39:37;;;;;;;10.68;7.20;;;15.00;1.00;;;;;;5089729;28;20220;-82
2024/03/15 10:42:05;;;;;;;10.77;7.28;;;15.00;1.00;;;;;;5104976;28;20341;-82
2024/03/15 10:44:32;;;;;;;10.13;7.53;;;15.00;1.00;;;;;;5086348;28;20210;-83
2024/03/15 10:46:59;;;;;;;7.72;6.63;;;15.10;1.00;;;;;;5088544;28;20216;-82
2024/03/15 10:49:26;;;;;;;11.00;7.03;;;15.10;1.00;;;;;;5082792;28;20895;-82
2024/03/15 10:51:53;;;;;;;10.82;7.07;;;15.10;1.00;;;;;;5086772;28;20277;-82
2024/03/15 10:54:21;;;;;;;8.98;6.82;;;15.20;1.00;;;;;;5101665;28;20209;-81
2024/03/15 10:56:48;;;;;;;9.65;7.00;;;15.20;1.00;;;;;;5087869;28;20209;-82
2024/03/15 10:59:15;;;;;;;8.43;6.53;;;15.10;1.00;;;;;;5090780;28;20221;-82
2024/03/15 11:01:42;;;;;;;11.93;6.75;;;15.10;1.00;;;;;;5100319;28;20221;-87
2024/03/15 11:04:11;;;;;;;10.15;6.43;;;15.10;1.00;;;;;;5106294;28;20640;-82
2024/03/15 11:06:42;;;;;;;7.25;6.15;;;15.30;1.00;;;;;;5089453;28;20197;-81
2024/03/15 11:09:14;;;;;;;9.52;6.85;;;15.30;1.00;;;;;;5087229;28;20228;-82
2024/03/15 11:11:41;;;;;;;9.70;7.00;;;15.50;1.00;;;;;;5086147;28;20312;-82
2024/03/15 11:14:14;;;;;;;9.95;6.60;;;15.50;1.00;;;;;;5087648;28;20197;-82
2024/03/15 11:16:45;;;;;;;7.75;6.25;;;15.50;1.00;;;;;;5086128;28;20227;-85
2024/03/15 11:19:15;;;;;;;9.77;6.35;;;15.50;1.00;;;;;;5086956;28;20257;-81
2024/03/15 11:21:42;;;;;;;9.80;6.78;;;15.40;1.00;;;;;;5087584;28;20221;-83
2024/03/15 11:24:17;;;;;;;9.80;6.38;;;15.40;1.00;;;;;;5079706;28;20221;-83
2024/03/15 11:26:58;;;;;;;8.93;6.70;;;15.50;1.00;;;;;;5085758;28;20682;-82
2024/03/15 11:29:47;;;;;;;10.00;6.57;;;15.50;1.00;;;;;;5096684;28;20205;-82
2024/03/15 11:32:48;;;;;;;9.30;6.95;;;15.40;1.00;;;;;;5088379;28;20222;-82
2024/03/15 11:38:02;;;;;;;12.70;7.10;;;15.40;1.00;;;;;;5081580;28;20212;-82
2024/03/15 11:40:49;;;;;;;14.20;7.18;;;15.20;1.00;;;;;;5081948;28;20223;-82
2024/03/15 11:43:35;;;;;;;10.60;7.45;;;15.40;1.00;;;;;;5103857;28;20205;-82
2024/03/15 11:46:11;;;;;;;11.55;7.70;;;15.40;1.00;;;;;;5102728;28;20209;-81
2024/03/15 11:48:38;;;;;;;9.05;6.45;;;15.40;1.00;;;;;;5086448;28;20201;-81
2024/03/15 11:51:05;;;;;;;10.13;6.88;;;15.40;1.00;;;;;;5088843;28;20245;-80
2024/03/15 11:53:34;;;;;;;9.57;6.82;;;15.40;1.00;;;;;;5088829;28;20284;-81
2024/03/15 11:56:02;;;;;;;11.02;7.65;;;15.40;1.00;;;;;;5090936;28;20267;-79
2024/03/15 11:58:29;;;;;;;10.77;7.25;;;15.40;1.00;;;;;;5086909;28;20194;-80
2024/03/15 12:00:56;;;;;;;12.88;7.60;;;15.40;1.00;;;;;;5084281;28;20225;-79
2024/03/15 12:03:24;;;;;;;10.55;7.30;;;15.60;1.00;;;;;;5088836;28;20202;-79
2024/03/15 12:05:51;;;;;;;11.00;7.32;;;15.70;1.00;;;;;;5090007;28;20273;-78
2024/03/15 12:08:20;;;;;;;9.70;6.55;;;15.80;1.00;;;;;;5086118;28;20200;-79
2024/03/15 12:10:47;;;;;;;9.35;6.82;;;15.90;1.00;;;;;;5089926;28;20213;-79
2024/03/15 12:13:15;;;;;;;9.93;7.28;;;15.90;1.00;;;;;;5095397;28;20196;-80
2024/03/15 12:15:42;;;;;;;10.45;6.55;;;15.90;1.00;;;;;;5095535;28;20641;-79
2024/03/15 12:18:10;;;;;;;8.38;5.93;;;15.80;1.00;;;;;;5096853;28;20212;-80
2024/03/15 12:20:37;;;;;;;8.38;6.60;;;15.70;1.00;;;;;;5096651;28;20254;-80
2024/03/15 12:23:05;;;;;;;10.07;7.35;;;15.80;1.00;;;;;;5099258;28;20228;-80
2024/03/15 12:25:34;;;;;;;9.60;5.85;;;15.90;1.00;;;;;;5090182;28;20206;-80
2024/03/15 12:28:05;;;;;;;10.88;7.10;;;16.00;1.00;;;;;;5096024;28;20202;-80
2024/03/15 12:30:32;;;;;;;10.20;6.30;;;16.10;1.00;;;;;;5089288;28;20349;-79
2024/03/15 12:32:59;;;;;;;10.65;7.05;;;16.00;1.00;;;;;;5091717;28;20194;-78
2024/03/15 12:35:26;;;;;;;8.80;6.72;;;16.00;1.00;;;;;;5095697;28;20292;-79
2024/03/15 12:37:53;;;;;;;14.20;7.40;;;15.80;1.00;;;;;;5097537;28;20209;-79
2024/03/15 12:40:20;;;;;;;10.32;7.07;;;15.80;1.00;;;;;;5092043;28;20325;-79
2024/03/15 12:42:47;;;;;;;9.10;6.82;;;15.80;1.00;;;;;;5089677;28;20206;-79
2024/03/15 12:45:15;;;;;;;8.55;6.38;;;15.80;1.00;;;;;;5094579;28;20201;-79
2024/03/15 12:47:42;;;;;;;7.10;6.18;;;15.70;1.00;;;;;;5090851;28;20265;-78
2024/03/15 12:50:11;;;;;;;9.35;6.40;;;15.90;1.00;;;;;;5094657;28;20201;-80
2024/03/15 12:52:38;;;;;;;11.38;7.00;;;15.80;1.00;;;;;;5091024;28;20256;-80
2024/03/15 12:55:07;;;;;;;12.00;6.10;;;16.00;1.00;;;;;;5091149;28;20197;-79
2024/03/15 12:57:35;;;;;;;9.38;6.38;;;16.30;1.00;;;;;;5094211;28;20205;-80
2024/03/15 13:00:05;;;;;;;9.27;6.63;;;16.70;1.00;;;;;;5091519;28;20243;-79